createdAt,value
2019-01-18T00:02:11.312Z,77.44
2019-01-18T00:04:40.809Z,76.82
2019-01-18T00:07:10.291Z,75.33
2019-01-18T00:09:39.870Z,74.39
2019-01-18T00:12:09.348Z,73.94
2019-01-18T00:14:39.271Z,74.35
2019-01-18T00:17:08.784Z,72.87
2019-01-18T00:19:38.295Z,73.00
2019-01-18T00:22:07.778Z,73.01
2019-01-18T00:24:37.283Z,73.76
2019-01-18T00:27:07.346Z,72.66
2019-01-18T00:29:36.851Z,71.93
2019-01-18T00:32:06.332Z,71.49
2019-01-18T00:34:36.086Z,71.57
2019-01-18T00:37:06.759Z,72.42
2019-01-18T00:39:36.304Z,71.46
2019-01-18T00:42:05.943Z,71.13
2019-01-18T00:44:35.441Z,70.99
2019-01-18T00:47:04.993Z,71.10
2019-01-18T00:49:34.508Z,70.71
2019-01-18T00:52:04.599Z,71.08
2019-01-18T00:54:34.101Z,70.84
2019-01-18T00:57:03.584Z,70.97
2019-01-18T00:59:36.383Z,70.85
2019-01-18T01:02:04.372Z,70.55
2019-01-18T01:04:33.889Z,70.74
2019-01-18T01:07:03.441Z,70.60
2019-01-18T01:09:32.949Z,71.21
2019-01-18T01:12:02.561Z,70.68
2019-01-18T01:14:32.134Z,70.58
2019-01-18T01:17:01.684Z,69.70
2019-01-18T01:19:31.184Z,69.97
2019-01-18T01:22:00.666Z,70.14
2019-01-18T01:24:30.301Z,70.94
2019-01-18T01:26:59.923Z,71.54
2019-01-18T01:29:29.427Z,70.75
2019-01-18T01:31:58.991Z,70.10
2019-01-18T01:34:28.551Z,70.54
2019-01-18T01:36:58.037Z,71.46
2019-01-18T01:39:27.540Z,72.55
2019-01-18T01:41:57.085Z,73.63
2019-01-18T01:44:26.588Z,75.62
2019-01-18T01:46:56.071Z,82.09
2019-01-18T01:49:25.573Z,85.09
2019-01-18T01:51:55.146Z,88.22
2019-01-18T01:54:24.623Z,90.06
2019-01-18T01:56:54.105Z,92.29
2019-01-18T01:59:23.631Z,96.82
2019-01-18T02:01:53.129Z,100.00
2019-01-18T02:04:22.621Z,100.00
2019-01-18T02:06:52.140Z,100.00
2019-01-18T02:09:21.658Z,100.00
2019-01-18T02:11:51.148Z,100.00
2019-01-18T02:14:20.767Z,100.00
2019-01-18T02:16:50.277Z,100.00
2019-01-18T02:19:19.776Z,100.00
2019-01-18T02:21:49.294Z,100.00
2019-01-18T02:24:18.806Z,100.00
2019-01-18T02:26:48.329Z,100.00
2019-01-18T02:29:17.843Z,100.00
2019-01-18T02:31:47.360Z,100.00
2019-01-18T02:34:16.852Z,100.00
2019-01-18T02:36:46.429Z,100.00
2019-01-18T02:39:15.924Z,100.00
2019-01-18T02:41:45.443Z,100.00
2019-01-18T02:44:14.953Z,100.00
2019-01-18T02:46:45.719Z,100.00
2019-01-18T02:49:15.211Z,100.00
2019-01-18T02:51:44.731Z,100.00
2019-01-18T02:54:14.240Z,99.73
2019-01-18T02:56:43.765Z,98.50
2019-01-18T02:59:14.337Z,97.25
2019-01-18T03:01:43.942Z,95.87
2019-01-18T03:04:15.149Z,95.93
2019-01-18T03:06:44.751Z,95.85
2019-01-18T03:09:14.287Z,95.43
2019-01-18T03:11:43.799Z,94.52
2019-01-18T03:14:13.294Z,94.29
2019-01-18T03:16:42.828Z,93.71
2019-01-18T03:19:12.327Z,91.78
2019-01-18T03:21:41.836Z,90.70
2019-01-18T03:24:11.865Z,91.64
2019-01-18T03:26:41.416Z,90.70
2019-01-18T03:29:10.925Z,91.16
2019-01-18T03:31:40.450Z,92.44
2019-01-18T03:34:09.950Z,92.48
2019-01-18T03:36:40.201Z,92.67
2019-01-18T03:39:10.282Z,91.98
2019-01-18T03:41:39.861Z,91.94
2019-01-18T03:44:09.432Z,92.75
2019-01-18T03:46:39.000Z,93.37
2019-01-18T03:49:08.763Z,94.68
2019-01-18T03:51:38.272Z,95.67
2019-01-18T03:54:07.768Z,95.67
2019-01-18T03:56:37.283Z,96.79
2019-01-18T03:59:06.779Z,97.63
2019-01-18T04:01:36.587Z,98.19
2019-01-18T04:04:06.149Z,97.55
2019-01-18T04:06:35.669Z,97.27
2019-01-18T04:09:07.251Z,92.71
2019-01-18T04:11:36.757Z,91.67
2019-01-18T04:14:06.473Z,90.76
2019-01-18T04:16:36.246Z,89.03
2019-01-18T04:19:05.739Z,88.72
2019-01-18T04:21:35.257Z,88.09
2019-01-18T04:24:05.090Z,88.27
2019-01-18T04:26:34.644Z,87.28
2019-01-18T04:29:04.156Z,86.64
2019-01-18T04:31:33.730Z,84.17
2019-01-18T04:34:03.230Z,85.49
2019-01-18T04:36:32.737Z,86.02
2019-01-18T04:39:02.294Z,85.08
2019-01-18T04:41:31.797Z,85.12
2019-01-18T04:44:01.283Z,85.06
2019-01-18T04:46:30.848Z,83.28
2019-01-18T04:49:00.340Z,81.32
2019-01-18T04:51:29.858Z,80.10
2019-01-18T04:53:59.350Z,80.77
2019-01-18T04:56:28.839Z,80.68
2019-01-18T04:58:58.340Z,79.86
2019-01-18T05:01:27.871Z,79.90
2019-01-18T05:03:57.383Z,79.36
2019-01-18T05:06:26.892Z,79.48
2019-01-18T05:08:56.390Z,79.59
2019-01-18T05:11:25.895Z,81.71
2019-01-18T05:13:55.402Z,79.77
2019-01-18T05:16:25.167Z,78.30
2019-01-18T05:18:54.711Z,79.65
2019-01-18T05:21:24.144Z,79.13
2019-01-18T05:23:53.660Z,79.00
2019-01-18T05:26:23.176Z,78.11
2019-01-18T05:28:52.707Z,77.54
2019-01-18T05:31:23.237Z,77.36
2019-01-18T05:33:52.819Z,77.25
2019-01-18T05:36:22.315Z,76.78
2019-01-18T05:38:51.821Z,78.12
2019-01-18T05:41:21.313Z,78.06
2019-01-18T05:43:51.505Z,77.41
2019-01-18T05:46:21.006Z,77.60
2019-01-18T05:48:50.526Z,77.22
2019-01-18T05:51:20.009Z,76.88
2019-01-18T05:53:49.532Z,76.29
2019-01-18T05:56:19.781Z,77.02
2019-01-18T05:58:49.292Z,76.96
2019-01-18T06:01:18.784Z,75.58
2019-01-18T06:03:48.294Z,76.80
2019-01-18T06:06:17.808Z,77.49
2019-01-18T06:08:48.067Z,76.74
2019-01-18T06:11:17.550Z,76.28
2019-01-18T06:13:47.036Z,75.31
2019-01-18T06:16:16.542Z,74.10
2019-01-18T06:18:46.092Z,74.79
2019-01-18T06:21:16.248Z,75.59
2019-01-18T06:23:45.732Z,73.89
2019-01-18T06:26:15.295Z,74.49
2019-01-18T06:28:44.810Z,74.98
2019-01-18T06:31:14.319Z,74.80
2019-01-18T06:33:44.621Z,73.53
2019-01-18T06:36:14.115Z,73.94
2019-01-18T06:38:43.680Z,73.51
2019-01-18T06:41:14.815Z,73.64
2019-01-18T06:43:44.325Z,74.73
2019-01-18T06:46:13.888Z,75.22
2019-01-18T06:48:44.103Z,75.01
2019-01-18T06:51:13.653Z,75.49
2019-01-18T06:53:43.166Z,76.44
2019-01-18T06:56:12.675Z,76.32
2019-01-18T06:58:42.185Z,77.40
2019-01-18T07:01:11.690Z,77.60
2019-01-18T07:03:41.193Z,77.04
2019-01-18T07:06:10.763Z,77.08
2019-01-18T07:08:40.259Z,77.79
2019-01-18T07:11:09.751Z,76.80
2019-01-18T07:13:39.260Z,77.51
2019-01-18T07:16:08.908Z,78.45
2019-01-18T07:18:38.490Z,77.70
2019-01-18T07:21:08.069Z,78.20
2019-01-18T07:23:37.577Z,78.50
2019-01-18T07:26:07.071Z,78.68
2019-01-18T07:28:36.674Z,79.20
2019-01-18T07:31:06.169Z,79.82
2019-01-18T07:33:35.671Z,78.83
2019-01-18T07:36:06.485Z,80.58
2019-01-18T07:38:36.000Z,80.58
2019-01-18T07:41:05.553Z,79.87
2019-01-18T07:43:35.110Z,80.75
2019-01-18T07:49:24.737Z,78.85
2019-01-18T07:51:54.243Z,78.87
2019-01-18T07:54:23.755Z,79.44
2019-01-18T07:56:53.245Z,79.42
2019-01-18T07:59:22.751Z,78.69
2019-01-18T08:01:52.243Z,77.78
2019-01-18T08:04:21.763Z,77.61
2019-01-18T08:06:51.260Z,77.59
2019-01-18T08:09:20.909Z,76.25
2019-01-18T08:11:50.421Z,76.25
2019-01-18T08:14:19.950Z,76.22
2019-01-18T08:16:49.445Z,76.10
2019-01-18T08:19:18.950Z,75.74
2019-01-18T08:21:48.528Z,74.47
2019-01-18T08:24:18.043Z,72.64
2019-01-18T08:26:47.537Z,70.72
2019-01-18T08:29:17.050Z,71.56
2019-01-18T08:31:47.518Z,69.32
2019-01-18T08:34:17.029Z,70.66
2019-01-18T08:36:46.523Z,67.95
2019-01-18T08:39:16.028Z,66.50
2019-01-18T08:41:45.510Z,64.54
2019-01-18T08:44:15.660Z,61.75
2019-01-18T08:46:45.147Z,60.27
2019-01-18T08:49:14.655Z,57.53
2019-01-18T08:51:44.137Z,53.66
2019-01-18T08:54:13.681Z,50.08
2019-01-18T08:56:43.785Z,44.70
2019-01-18T08:59:13.286Z,43.64
2019-01-18T09:01:42.771Z,44.73
2019-01-18T09:04:12.272Z,46.85
2019-01-18T09:06:41.751Z,46.84
2019-01-18T09:09:11.933Z,50.78
2019-01-18T09:11:41.460Z,48.65
2019-01-18T09:14:10.956Z,46.66
2019-01-18T09:16:40.436Z,48.56
2019-01-18T09:19:09.936Z,49.23
2019-01-18T09:21:40.044Z,53.60
2019-01-18T09:24:09.616Z,54.99
2019-01-18T09:26:39.074Z,53.77
2019-01-18T09:29:08.620Z,54.55
2019-01-18T09:31:42.463Z,55.38
2019-01-18T09:34:09.505Z,54.32
2019-01-18T09:36:39.064Z,56.48
2019-01-18T09:39:08.813Z,57.43
2019-01-18T09:41:38.318Z,55.98
2019-01-18T09:44:07.794Z,56.36
2019-01-18T09:46:37.296Z,58.84
2019-01-18T09:49:06.847Z,58.71
2019-01-18T09:51:36.290Z,55.49
2019-01-18T09:54:05.860Z,56.26
2019-01-18T09:56:35.346Z,55.45
2019-01-18T09:59:04.919Z,56.56
2019-01-18T10:01:35.352Z,57.75
2019-01-18T10:04:04.971Z,57.00
2019-01-18T10:06:34.452Z,54.79
2019-01-18T10:09:07.260Z,56.82
2019-01-18T10:11:36.845Z,56.93
2019-01-18T10:14:06.402Z,53.58
2019-01-18T10:16:35.912Z,53.04
2019-01-18T10:19:05.464Z,53.82
2019-01-18T10:21:35.007Z,54.33
2019-01-18T10:24:04.567Z,52.29
2019-01-18T10:26:34.572Z,52.75
2019-01-18T10:29:04.060Z,53.76
2019-01-18T10:31:33.564Z,51.45
2019-01-18T10:34:03.124Z,50.41
2019-01-18T10:36:32.627Z,52.77
2019-01-18T10:39:04.639Z,52.51
2019-01-18T10:41:34.177Z,51.42
2019-01-18T10:44:06.141Z,51.56
2019-01-18T10:46:34.887Z,51.13
2019-01-18T10:49:04.574Z,52.04
2019-01-18T10:51:34.078Z,50.11
2019-01-18T10:54:03.564Z,51.52
2019-01-18T10:56:33.060Z,50.39
2019-01-18T10:59:02.638Z,47.20
2019-01-18T11:01:32.117Z,49.68
2019-01-18T11:04:01.626Z,50.24
2019-01-18T11:06:32.359Z,47.74
2019-01-18T11:09:01.845Z,47.02
2019-01-18T11:11:31.411Z,48.21
2019-01-18T11:14:00.884Z,45.77
2019-01-18T11:16:30.456Z,46.98
2019-01-18T11:19:00.861Z,44.63
2019-01-18T11:21:30.352Z,43.41
2019-01-18T11:23:59.854Z,44.22
2019-01-18T11:26:29.355Z,41.74
2019-01-18T11:28:58.841Z,36.65
2019-01-18T11:31:28.922Z,37.19
2019-01-18T11:33:58.398Z,37.21
2019-01-18T11:36:27.901Z,36.06
2019-01-18T11:38:57.384Z,37.29
2019-01-18T11:41:26.887Z,38.45
2019-01-18T11:43:56.975Z,38.87
2019-01-18T11:46:26.473Z,34.52
2019-01-18T11:52:03.814Z,36.51
2019-01-18T11:54:33.297Z,30.91
2019-01-18T11:57:02.848Z,30.38
2019-01-18T11:59:32.377Z,31.14
2019-01-18T12:02:01.859Z,29.13
2019-01-18T12:04:31.343Z,29.07
2019-01-18T12:07:20.196Z,25.01
2019-01-18T12:10:29.634Z,25.17
2019-01-18T12:12:59.183Z,27.41
2019-01-18T12:15:28.876Z,23.65
2019-01-18T12:17:58.364Z,26.59
2019-01-18T12:20:34.043Z,29.61
2019-01-18T12:23:03.958Z,32.07
2019-01-18T12:25:33.966Z,36.59
2019-01-18T12:28:03.449Z,38.21
2019-01-18T12:30:34.384Z,39.48
2019-01-18T12:33:04.096Z,40.73
2019-01-18T12:35:33.748Z,44.44
2019-01-18T12:38:03.251Z,43.39
2019-01-18T12:40:32.806Z,43.02
2019-01-18T12:43:02.363Z,41.95
2019-01-18T12:45:31.940Z,41.84
2019-01-18T12:48:01.378Z,41.69
2019-01-18T12:50:33.981Z,42.35
2019-01-18T12:53:03.634Z,40.52
2019-01-18T12:55:33.176Z,43.56
2019-01-18T12:58:02.827Z,42.72
2019-01-18T13:00:32.794Z,45.17
2019-01-18T13:03:02.448Z,45.63
2019-01-18T13:05:43.188Z,46.82
2019-01-18T13:08:12.679Z,48.16
2019-01-18T13:10:42.151Z,47.09
2019-01-18T13:13:11.817Z,47.81
2019-01-18T13:15:54.422Z,48.90
2019-01-18T13:18:23.901Z,48.15
2019-01-18T13:20:53.488Z,47.89
2019-01-18T13:23:22.968Z,47.38
2019-01-18T13:25:52.520Z,46.17
2019-01-18T13:28:22.090Z,46.06
2019-01-18T13:30:51.593Z,41.18
2019-01-18T13:33:21.198Z,40.55
2019-01-18T13:35:50.671Z,40.67
2019-01-18T13:38:20.159Z,38.21
2019-01-18T13:40:49.733Z,29.89
2019-01-18T13:43:21.533Z,32.06
2019-01-18T13:45:51.072Z,38.31
2019-01-18T13:48:20.685Z,35.40
2019-01-18T13:50:50.177Z,32.60
2019-01-18T13:53:19.688Z,32.04
2019-01-18T13:55:49.341Z,27.71
2019-01-18T13:58:18.873Z,28.74
2019-01-18T14:00:48.358Z,28.45
2019-01-18T14:03:17.972Z,25.71
2019-01-18T14:05:47.489Z,27.44
2019-01-18T14:08:17.945Z,35.56
2019-01-18T14:10:47.493Z,35.73
2019-01-18T14:13:17.095Z,38.30
2019-01-18T14:15:47.249Z,36.25
2019-01-18T14:18:16.759Z,40.93
2019-01-18T14:20:46.296Z,40.95
2019-01-18T14:23:15.840Z,43.03
2019-01-18T14:25:45.369Z,46.01
2019-01-18T14:28:14.872Z,50.58
2019-01-18T14:30:44.432Z,50.05
2019-01-18T14:33:14.138Z,48.76
2019-01-18T14:35:43.674Z,52.17
2019-01-18T14:38:13.285Z,52.41
2019-01-18T14:40:42.824Z,52.89
2019-01-18T14:43:12.332Z,52.92
2019-01-18T14:45:44.129Z,53.96
2019-01-18T14:48:13.780Z,53.93
2019-01-18T14:50:43.509Z,52.52
2019-01-18T14:53:13.029Z,54.95
2019-01-18T14:55:42.558Z,54.62
2019-01-18T14:58:12.193Z,55.16
2019-01-18T15:00:41.797Z,56.32
2019-01-18T15:03:11.791Z,57.18
2019-01-18T15:05:41.279Z,57.68
2019-01-18T15:08:10.870Z,58.11
2019-01-18T15:10:40.480Z,58.92
2019-01-18T15:13:13.558Z,59.46
2019-01-18T15:15:43.225Z,61.42
2019-01-18T15:18:12.814Z,62.15
2019-01-18T15:20:42.445Z,63.52
2019-01-18T15:23:12.126Z,64.70
2019-01-18T15:25:41.634Z,65.67
2019-01-18T15:28:11.226Z,66.55
2019-01-18T15:30:40.720Z,67.38
2019-01-18T15:33:10.319Z,68.15
2019-01-18T15:35:39.872Z,68.12
2019-01-18T15:38:09.502Z,69.22
2019-01-18T15:40:43.018Z,68.72
2019-01-18T15:43:14.153Z,69.07
2019-01-18T15:45:43.739Z,69.09
2019-01-18T15:48:13.365Z,70.73
2019-01-18T15:50:42.960Z,70.17
2019-01-18T15:53:12.489Z,71.11
2019-01-18T15:55:43.260Z,72.07
2019-01-18T15:58:12.797Z,73.47
2019-01-18T16:00:43.602Z,74.07
2019-01-18T16:03:16.064Z,73.98
2019-01-18T16:05:45.061Z,74.80
2019-01-18T16:08:14.613Z,75.62
2019-01-18T16:10:44.106Z,76.62
2019-01-18T16:13:13.841Z,77.27
2019-01-18T16:15:50.772Z,77.03
2019-01-18T16:18:24.014Z,76.89
2019-01-18T16:20:53.696Z,77.52
2019-01-18T16:23:23.192Z,77.92
2019-01-18T16:25:52.765Z,76.10
2019-01-18T16:28:22.370Z,76.09
2019-01-18T16:30:51.858Z,76.36
2019-01-18T16:33:23.492Z,76.72
2019-01-18T16:35:53.316Z,76.56
2019-01-18T16:38:22.802Z,77.22
2019-01-18T16:40:53.653Z,76.75
2019-01-18T16:43:30.184Z,76.90
2019-01-18T16:45:59.735Z,76.16
2019-01-18T16:48:29.295Z,76.65
2019-01-18T16:50:58.839Z,76.41
2019-01-18T16:53:28.621Z,76.91
2019-01-18T16:55:58.106Z,76.79
2019-01-18T16:58:27.595Z,76.65
2019-01-18T17:01:01.135Z,76.37
2019-01-18T17:03:30.979Z,76.79
2019-01-18T17:06:00.473Z,77.80
2019-01-18T17:08:29.964Z,77.63
2019-01-18T17:10:59.567Z,78.82
2019-01-18T17:13:29.127Z,79.27
2019-01-18T17:15:58.728Z,79.95
2019-01-18T17:18:28.490Z,80.89
2019-01-18T17:20:58.200Z,80.85
2019-01-18T17:23:27.701Z,80.30
2019-01-18T17:25:57.243Z,81.02
2019-01-18T17:28:26.803Z,81.79
2019-01-18T17:30:56.291Z,82.18
2019-01-18T17:33:25.898Z,81.42
2019-01-18T17:36:09.412Z,81.87
2019-01-18T17:39:13.532Z,82.97
2019-01-18T17:41:56.136Z,82.92
2019-01-18T17:45:01.295Z,82.27
2019-01-18T17:48:09.800Z,81.93
2019-01-18T17:51:08.922Z,82.93
2019-01-18T17:54:02.579Z,83.72
2019-01-18T17:56:51.211Z,84.77
2019-01-18T17:59:41.585Z,84.21
2019-01-18T18:02:35.232Z,85.42
2019-01-18T18:05:30.457Z,86.47
2019-01-18T18:08:13.162Z,86.79
2019-01-18T18:11:09.908Z,85.79
2019-01-18T18:14:25.839Z,86.34
2019-01-18T18:17:23.859Z,85.66
2019-01-18T18:20:33.551Z,83.79
2019-01-18T18:23:37.660Z,84.56
2019-01-18T18:26:14.602Z,84.62
2019-01-18T18:29:11.295Z,84.94
2019-01-18T18:32:11.835Z,86.24
2019-01-18T18:35:00.927Z,84.85
2019-01-18T18:38:18.079Z,86.00
2019-01-18T18:41:08.754Z,85.68
2019-01-18T18:43:58.069Z,86.85
2019-01-18T18:46:57.476Z,88.23
2019-01-18T18:49:58.494Z,89.14
2019-01-18T18:52:40.592Z,87.90
2019-01-18T18:55:17.306Z,87.53
2019-01-18T18:58:00.143Z,87.82
2019-01-18T19:00:52.254Z,88.27
2019-01-18T19:03:57.511Z,89.07
2019-01-18T19:07:07.576Z,89.18
2019-01-18T19:09:58.081Z,89.11
2019-01-18T19:12:46.183Z,89.24
2019-01-18T19:15:49.829Z,89.47
2019-01-18T19:18:56.958Z,88.23
2019-01-18T19:21:47.098Z,88.20
2019-01-18T19:24:42.043Z,88.60
2019-01-18T19:27:30.995Z,87.69
2019-01-18T19:30:36.451Z,87.87
2019-01-18T19:33:25.597Z,88.22
2019-01-18T19:36:19.879Z,89.47
2019-01-18T19:38:54.098Z,90.37
2019-01-18T19:41:39.739Z,90.51
2019-01-18T19:44:37.580Z,90.13
2019-01-18T19:47:11.750Z,89.05
2019-01-18T19:49:51.905Z,89.69
2019-01-18T19:52:44.128Z,90.65
2019-01-18T19:55:30.113Z,89.96
2019-01-18T19:58:12.202Z,88.33
2019-01-18T20:01:16.306Z,88.55
2019-01-18T20:03:58.986Z,89.17
2019-01-18T20:06:55.780Z,89.00
2019-01-18T20:09:53.646Z,88.96
2019-01-18T20:12:54.570Z,88.52
2019-01-18T20:15:34.383Z,89.22
2019-01-18T20:18:32.259Z,89.89
2019-01-18T20:21:21.249Z,89.21
2019-01-18T20:24:03.953Z,89.36
2019-01-18T20:27:31.499Z,89.17
2019-01-18T20:30:11.175Z,88.57
2019-01-18T20:33:02.931Z,87.62
2019-01-18T20:35:42.774Z,87.18
2019-01-18T20:38:25.665Z,86.68
2019-01-18T20:41:27.996Z,87.04
2019-01-18T20:44:16.953Z,87.41
2019-01-18T20:47:31.697Z,86.49
2019-01-18T20:50:20.061Z,86.75
2019-01-18T20:53:00.365Z,86.45
2019-01-18T20:55:43.173Z,86.65
2019-01-18T20:58:23.345Z,86.39
2019-01-18T21:01:14.037Z,87.10
2019-01-18T21:04:05.993Z,87.66
2019-01-18T21:06:43.000Z,88.02
2019-01-18T21:09:28.907Z,88.10
2019-01-18T21:12:08.491Z,88.14
2019-01-18T21:15:12.571Z,88.11
2019-01-18T21:18:13.359Z,88.28
2019-01-18T21:20:53.377Z,88.09
2019-01-18T21:23:54.332Z,87.17
2019-01-18T21:26:40.108Z,86.57
2019-01-18T21:29:36.801Z,86.34
2019-01-18T21:32:22.338Z,87.49
2019-01-18T21:35:11.070Z,87.34
2019-01-18T21:38:27.288Z,87.18
2019-01-18T21:41:19.268Z,86.59
2019-01-18T21:44:09.958Z,86.88
2019-01-18T21:46:44.559Z,86.52
2019-01-18T21:49:24.678Z,87.00
2019-01-18T21:52:25.862Z,86.40
2019-01-18T21:55:19.183Z,85.64
2019-01-18T21:57:56.071Z,86.44
2019-01-18T22:00:52.677Z,87.04
2019-01-18T22:03:41.515Z,86.13
2019-01-18T22:06:36.584Z,86.17
2019-01-18T22:09:13.309Z,85.79
2019-01-18T22:11:47.535Z,85.96
2019-01-18T22:15:03.362Z,87.51
2019-01-18T22:17:46.287Z,87.21
2019-01-18T22:20:23.056Z,86.79
2019-01-18T22:23:14.727Z,86.98
2019-01-18T22:26:00.036Z,87.23
2019-01-18T22:28:48.358Z,87.57
2019-01-18T22:31:57.394Z,86.89
2019-01-18T22:34:49.359Z,87.87
2019-01-18T22:37:54.707Z,87.53
2019-01-18T22:40:55.504Z,87.93
2019-01-18T22:44:02.351Z,88.12
2019-01-18T22:47:10.450Z,88.78
2019-01-18T22:50:09.570Z,89.37
2019-01-18T22:53:18.043Z,89.06
2019-01-18T22:55:58.004Z,89.94
2019-01-18T22:58:34.623Z,90.32
2019-01-18T23:01:37.244Z,90.26
2019-01-18T23:04:43.867Z,90.51
2019-01-18T23:07:47.692Z,89.77
2019-01-18T23:10:51.294Z,89.59
2019-01-18T23:13:40.184Z,89.28
2019-01-18T23:16:38.015Z,89.33
2019-01-18T23:19:17.613Z,89.20
2019-01-18T23:22:08.034Z,88.82
2019-01-18T23:24:44.765Z,89.19
2019-01-18T23:28:04.691Z,88.74
2019-01-18T23:31:03.117Z,88.35
2019-01-18T23:33:43.151Z,86.59
2019-01-18T23:36:31.677Z,85.94
2019-01-18T23:39:31.112Z,86.34
2019-01-18T23:42:25.321Z,86.87
2019-01-18T23:45:02.397Z,87.13
2019-01-18T23:47:44.994Z,86.85
2019-01-18T23:50:39.900Z,86.25
2019-01-18T23:53:22.888Z,86.73
2019-01-18T23:56:28.824Z,85.94
2019-01-18T23:59:17.805Z,86.01
